sensor_id;sensor_type;location;lat;lon;timestamp;temperature;humidity
75500;DHT22;64076;51.466;7.260;2023-03-14T07:03:20;22.10;41.50
75500;DHT22;64076;51.466;7.260;2023-03-14T07:22:51;21.80;42.60
75500;DHT22;64076;51.466;7.260;2023-03-14T07:25:16;21.80;42.60
75500;DHT22;64076;51.466;7.260;2023-03-14T07:27:46;21.80;42.50
75500;DHT22;64076;51.466;7.260;2023-03-14T07:30:13;21.90;42.60
75500;DHT22;64076;51.466;7.260;2023-03-14T07:32:38;21.90;42.60
75500;DHT22;64076;51.466;7.260;2023-03-14T07:35:04;21.90;42.50
75500;DHT22;64076;51.466;7.260;2023-03-14T07:37:30;21.90;42.60
75500;DHT22;64076;51.466;7.260;2023-03-14T07:39:56;22.00;42.40
75500;DHT22;64076;51.466;7.260;2023-03-14T07:42:21;22.00;42.40
75500;DHT22;64076;51.466;7.260;2023-03-14T07:44:47;22.00;42.40
75500;DHT22;64076;51.466;7.260;2023-03-14T07:47:12;22.00;42.40
75500;DHT22;64076;51.466;7.260;2023-03-14T07:49:38;22.00;42.30
75500;DHT22;64076;51.466;7.260;2023-03-14T07:52:03;22.00;42.40
75500;DHT22;64076;51.466;7.260;2023-03-14T07:54:29;22.00;42.30
75500;DHT22;64076;51.466;7.260;2023-03-14T07:56:54;22.00;42.30
75500;DHT22;64076;51.466;7.260;2023-03-14T07:59:20;22.10;42.40
75500;DHT22;64076;51.466;7.260;2023-03-14T08:01:46;22.10;42.40
75500;DHT22;64076;51.466;7.260;2023-03-14T08:04:12;22.10;42.40
75500;DHT22;64076;51.466;7.260;2023-03-14T08:06:37;22.10;42.40
75500;DHT22;64076;51.466;7.260;2023-03-14T08:09:03;22.10;42.50
75500;DHT22;64076;51.466;7.260;2023-03-14T08:11:29;22.10;42.50
75500;DHT22;64076;51.466;7.260;2023-03-14T08:13:55;22.10;42.60
75500;DHT22;64076;51.466;7.260;2023-03-14T08:16:21;22.10;42.60
75500;DHT22;64076;51.466;7.260;2023-03-14T08:18:47;22.10;42.60
75500;DHT22;64076;51.466;7.260;2023-03-14T08:21:13;22.20;42.70
75500;DHT22;64076;51.466;7.260;2023-03-14T08:23:38;22.20;42.70
75500;DHT22;64076;51.466;7.260;2023-03-14T08:26:04;22.20;42.80
75500;DHT22;64076;51.466;7.260;2023-03-14T08:28:30;22.20;42.80
75500;DHT22;64076;51.466;7.260;2023-03-14T08:30:58;22.20;42.80
75500;DHT22;64076;51.466;7.260;2023-03-14T08:33:24;22.20;42.90
75500;DHT22;64076;51.466;7.260;2023-03-14T08:35:54;22.20;42.90
75500;DHT22;64076;51.466;7.260;2023-03-14T08:38:20;22.20;43.00
75500;DHT22;64076;51.466;7.260;2023-03-14T08:40:45;22.20;43.00
75500;DHT22;64076;51.466;7.260;2023-03-14T08:43:11;22.20;43.00
75500;DHT22;64076;51.466;7.260;2023-03-14T08:45:36;22.20;43.00
75500;DHT22;64076;51.466;7.260;2023-03-14T08:48:02;22.30;43.10
75500;DHT22;64076;51.466;7.260;2023-03-14T08:50:28;22.30;43.10
75500;DHT22;64076;51.466;7.260;2023-03-14T08:52:56;22.30;43.10
75500;DHT22;64076;51.466;7.260;2023-03-14T08:55:25;22.30;43.10
75500;DHT22;64076;51.466;7.260;2023-03-14T08:57:52;22.30;43.20
75500;DHT22;64076;51.466;7.260;2023-03-14T09:00:18;22.30;43.30
75500;DHT22;64076;51.466;7.260;2023-03-14T09:02:44;22.30;43.20
75500;DHT22;64076;51.466;7.260;2023-03-14T09:05:10;22.30;43.20
75500;DHT22;64076;51.466;7.260;2023-03-14T09:07:37;22.30;43.30
75500;DHT22;64076;51.466;7.260;2023-03-14T09:10:03;22.30;43.30
75500;DHT22;64076;51.466;7.260;2023-03-14T09:12:28;22.30;43.40
75500;DHT22;64076;51.466;7.260;2023-03-14T09:14:54;22.30;43.50
75500;DHT22;64076;51.466;7.260;2023-03-14T09:17:20;22.30;43.70
75500;DHT22;64076;51.466;7.260;2023-03-14T09:19:45;22.30;43.80
75500;DHT22;64076;51.466;7.260;2023-03-14T09:22:11;22.30;43.90
75500;DHT22;64076;51.466;7.260;2023-03-14T09:24:36;22.30;44.00
75500;DHT22;64076;51.466;7.260;2023-03-14T09:27:02;22.30;44.10
75500;DHT22;64076;51.466;7.260;2023-03-14T09:29:27;22.30;44.00
75500;DHT22;64076;51.466;7.260;2023-03-14T09:31:53;22.30;44.00
75500;DHT22;64076;51.466;7.260;2023-03-14T09:34:19;22.30;43.90
75500;DHT22;64076;51.466;7.260;2023-03-14T09:36:44;22.30;43.70
75500;DHT22;64076;51.466;7.260;2023-03-14T09:39:11;22.30;43.50
75500;DHT22;64076;51.466;7.260;2023-03-14T09:41:42;22.30;43.50
75500;DHT22;64076;51.466;7.260;2023-03-14T09:46:51;22.40;43.20
75500;DHT22;64076;51.466;7.260;2023-03-14T09:49:25;22.30;43.10
75500;DHT22;64076;51.466;7.260;2023-03-14T09:51:57;22.40;43.00
75500;DHT22;64076;51.466;7.260;2023-03-14T09:54:30;22.40;43.00
75500;DHT22;64076;51.466;7.260;2023-03-14T09:56:56;22.40;42.80
75500;DHT22;64076;51.466;7.260;2023-03-14T09:59:22;22.40;42.40
75500;DHT22;64076;51.466;7.260;2023-03-14T10:01:48;22.40;42.40
75500;DHT22;64076;51.466;7.260;2023-03-14T10:04:17;22.40;42.30
75500;DHT22;64076;51.466;7.260;2023-03-14T10:06:46;22.40;42.20
75500;DHT22;64076;51.466;7.260;2023-03-14T10:09:20;22.40;42.20
75500;DHT22;64076;51.466;7.260;2023-03-14T10:11:55;22.40;42.10
75500;DHT22;64076;51.466;7.260;2023-03-14T10:14:33;22.40;42.10
75500;DHT22;64076;51.466;7.260;2023-03-14T10:17:07;22.40;42.10
75500;DHT22;64076;51.466;7.260;2023-03-14T10:19:34;22.40;41.80
75500;DHT22;64076;51.466;7.260;2023-03-14T10:22:02;22.30;41.90
75500;DHT22;64076;51.466;7.260;2023-03-14T10:24:31;22.30;41.60
75500;DHT22;64076;51.466;7.260;2023-03-14T10:27:04;22.30;41.50
75500;DHT22;64076;51.466;7.260;2023-03-14T10:29:32;22.30;41.20
75500;DHT22;64076;51.466;7.260;2023-03-14T10:32:06;22.40;41.10
75500;DHT22;64076;51.466;7.260;2023-03-14T10:34:38;22.40;41.00
75500;DHT22;64076;51.466;7.260;2023-03-14T10:37:17;22.40;40.60
75500;DHT22;64076;51.466;7.260;2023-03-14T10:39:48;22.40;40.50
75500;DHT22;64076;51.466;7.260;2023-03-14T10:42:25;22.40;40.30
75500;DHT22;64076;51.466;7.260;2023-03-14T10:44:57;22.40;40.10
75500;DHT22;64076;51.466;7.260;2023-03-14T10:47:26;22.40;40.10
75500;DHT22;64076;51.466;7.260;2023-03-14T10:49:54;22.40;40.10
75500;DHT22;64076;51.466;7.260;2023-03-14T10:52:28;22.40;40.30
75500;DHT22;64076;51.466;7.260;2023-03-14T10:54:59;22.40;40.20
75500;DHT22;64076;51.466;7.260;2023-03-14T10:57:26;22.50;40.10
75500;DHT22;64076;51.466;7.260;2023-03-14T10:59:53;22.50;40.10
75500;DHT22;64076;51.466;7.260;2023-03-14T11:07:36;22.50;39.30
75500;DHT22;64076;51.466;7.260;2023-03-14T11:19:20;22.50;38.30
75500;DHT22;64076;51.466;7.260;2023-03-14T11:21:59;22.50;38.10
75500;DHT22;64076;51.466;7.260;2023-03-14T11:24:48;22.50;37.90
75500;DHT22;64076;51.466;7.260;2023-03-14T11:27:22;22.50;37.60
75500;DHT22;64076;51.466;7.260;2023-03-14T11:30:20;22.50;37.50
75500;DHT22;64076;51.466;7.260;2023-03-14T11:33:16;22.50;37.30
75500;DHT22;64076;51.466;7.260;2023-03-14T11:35:45;22.50;37.00
75500;DHT22;64076;51.466;7.260;2023-03-14T11:38:22;22.50;36.80
75500;DHT22;64076;51.466;7.260;2023-03-14T11:40:51;22.50;36.70
75500;DHT22;64076;51.466;7.260;2023-03-14T11:43:20;22.60;36.50
75500;DHT22;64076;51.466;7.260;2023-03-14T11:45:50;22.60;36.30
75500;DHT22;64076;51.466;7.260;2023-03-14T11:51:13;22.60;35.80
75500;DHT22;64076;51.466;7.260;2023-03-14T11:53:59;22.60;35.80
75500;DHT22;64076;51.466;7.260;2023-03-14T11:59:19;22.60;35.50
75500;DHT22;64076;51.466;7.260;2023-03-14T12:02:02;22.60;35.40
75500;DHT22;64076;51.466;7.260;2023-03-14T12:07:39;22.60;35.20
75500;DHT22;64076;51.466;7.260;2023-03-14T12:10:09;22.60;35.00
75500;DHT22;64076;51.466;7.260;2023-03-14T12:12:35;22.60;35.10
75500;DHT22;64076;51.466;7.260;2023-03-14T12:15:02;22.60;35.10
75500;DHT22;64076;51.466;7.260;2023-03-14T12:17:38;22.60;35.00
75500;DHT22;64076;51.466;7.260;2023-03-14T12:20:12;22.50;34.80
75500;DHT22;64076;51.466;7.260;2023-03-14T12:22:46;22.50;34.90
75500;DHT22;64076;51.466;7.260;2023-03-14T12:25:20;22.50;34.80
75500;DHT22;64076;51.466;7.260;2023-03-14T12:30:38;22.50;34.90
75500;DHT22;64076;51.466;7.260;2023-03-14T12:33:20;22.60;34.60
75500;DHT22;64076;51.466;7.260;2023-03-14T12:41:15;22.50;34.90
75500;DHT22;64076;51.466;7.260;2023-03-14T12:43:42;22.60;35.10
75500;DHT22;64076;51.466;7.260;2023-03-14T12:51:37;22.50;35.00
75500;DHT22;64076;51.466;7.260;2023-03-14T12:54:17;22.50;34.90
75500;DHT22;64076;51.466;7.260;2023-03-14T12:57:18;22.50;34.80
75500;DHT22;64076;51.466;7.260;2023-03-14T12:59:50;22.50;34.80
75500;DHT22;64076;51.466;7.260;2023-03-14T13:02:36;22.50;34.70
75500;DHT22;64076;51.466;7.260;2023-03-14T13:05:16;22.50;34.80
75500;DHT22;64076;51.466;7.260;2023-03-14T13:12:52;22.50;34.60
75500;DHT22;64076;51.466;7.260;2023-03-14T13:15:39;22.60;34.50
75500;DHT22;64076;51.466;7.260;2023-03-14T13:20:58;22.50;34.60
75500;DHT22;64076;51.466;7.260;2023-03-14T13:23:29;22.50;34.50
75500;DHT22;64076;51.466;7.260;2023-03-14T13:25:56;22.50;34.50
75500;DHT22;64076;51.466;7.260;2023-03-14T13:28:22;22.50;34.50
75500;DHT22;64076;51.466;7.260;2023-03-14T13:30:49;22.50;34.50
75500;DHT22;64076;51.466;7.260;2023-03-14T13:33:22;22.50;34.60
75500;DHT22;64076;51.466;7.260;2023-03-14T13:35:54;22.50;34.60
75500;DHT22;64076;51.466;7.260;2023-03-14T13:38:23;22.50;34.60
75500;DHT22;64076;51.466;7.260;2023-03-14T13:40:50;22.60;34.60
75500;DHT22;64076;51.466;7.260;2023-03-14T13:43:20;22.50;34.60
75500;DHT22;64076;51.466;7.260;2023-03-14T13:45:53;22.50;34.50
75500;DHT22;64076;51.466;7.260;2023-03-14T13:48:19;22.50;34.50
75500;DHT22;64076;51.466;7.260;2023-03-14T13:53:33;22.50;34.50
75500;DHT22;64076;51.466;7.260;2023-03-14T13:56:09;22.50;34.50
75500;DHT22;64076;51.466;7.260;2023-03-14T13:58:37;22.50;34.50
75500;DHT22;64076;51.466;7.260;2023-03-14T14:01:25;22.50;34.70
75500;DHT22;64076;51.466;7.260;2023-03-14T14:03:54;22.50;34.60
75500;DHT22;64076;51.466;7.260;2023-03-14T14:06:31;22.50;34.60
75500;DHT22;64076;51.466;7.260;2023-03-14T14:09:00;22.50;34.70
75500;DHT22;64076;51.466;7.260;2023-03-14T14:11:41;22.50;34.60
75500;DHT22;64076;51.466;7.260;2023-03-14T14:14:12;22.50;34.50
75500;DHT22;64076;51.466;7.260;2023-03-14T14:16:38;22.50;34.50
75500;DHT22;64076;51.466;7.260;2023-03-14T14:19:05;22.60;34.60
75500;DHT22;64076;51.466;7.260;2023-03-14T14:21:31;22.60;34.50
75500;DHT22;64076;51.466;7.260;2023-03-14T14:23:59;22.60;34.50
75500;DHT22;64076;51.466;7.260;2023-03-14T14:26:26;22.60;34.50
75500;DHT22;64076;51.466;7.260;2023-03-14T14:29:03;22.60;34.50
75500;DHT22;64076;51.466;7.260;2023-03-14T14:31:29;22.70;34.30
75500;DHT22;64076;51.466;7.260;2023-03-14T14:33:59;22.70;34.20
75500;DHT22;64076;51.466;7.260;2023-03-14T14:36:27;22.70;34.00
75500;DHT22;64076;51.466;7.260;2023-03-14T14:39:00;22.70;33.80
75500;DHT22;64076;51.466;7.260;2023-03-14T14:41:28;22.70;33.50
75500;DHT22;64076;51.466;7.260;2023-03-14T14:43:56;22.70;33.40
75500;DHT22;64076;51.466;7.260;2023-03-14T14:46:22;22.60;33.10
75500;DHT22;64076;51.466;7.260;2023-03-14T14:51:26;22.60;32.60
75500;DHT22;64076;51.466;7.260;2023-03-14T14:54:09;22.60;32.10
75500;DHT22;64076;51.466;7.260;2023-03-14T14:56:36;22.60;31.80
75500;DHT22;64076;51.466;7.260;2023-03-14T14:59:02;22.50;31.70
75500;DHT22;64076;51.466;7.260;2023-03-14T15:14:02;22.50;31.50
75500;DHT22;64076;51.466;7.260;2023-03-14T15:16:29;22.50;29.90
